Latest Weather Observations for Rottnest Island

IDW60801

Issued at 7:22 pm WST Thursday 18 July 2024 (issued every 10 minutes, with the page automatically refreshed every 10 minutes)

About weather observations | Map of weather stations | Latest weather observations for WA | Other Formats
Station Details ID: 009193 Name: ROTTNEST ISLAND Lat: -32.01 Lon: 115.50 Height: 43.1 m
Data from the previous 72 hours. | See also: Recent months at Rottnest Island
Date/Time
WST
Temp
°C
App
Temp
°C
Dew
Point
°C
Rel
Hum
%
Delta-T
°C
Wind Press
QNH
hPa
Press
MSL
hPa
Rain since
9am
mm
Dir  Spd
km/h
Gust
km/h
Spd
kts
Gust
kts
18/07:10pm 14.8 5.0 6.9 59 3.9 W 48 82 26 44 1014.2 1014.1 2.6
18/07:01pm 14.8 5.9 7.8 63 3.5 W 44 63 24 34 1013.9 1013.8 2.6
18/07:00pm 14.8 5.5 7.6 62 3.6 W 46 63 25 34 1014.0 1013.9 2.6
18/06:30pm 14.3 6.3 7.4 63 3.4 WSW 39 59 21 32 1013.5 1013.4 2.6
18/06:02pm 13.9 6.5 8.5 70 2.7 W 37 56 20 30 1013.4 1013.3 2.6
18/06:00pm 13.9 6.2 8.7 71 2.6 W 39 56 21 30 1013.4 1013.3 2.6
18/05:54pm 13.3 5.1 8.2 71 2.5 W 41 56 22 30 1013.5 1013.4 2.6
18/05:39pm 12.7 5.4 7.2 69 2.7 W 35 61 19 33 1013.9 1013.8 2.4
18/05:38pm 13.2 6.4 7.6 69 2.7 W 33 46 18 25 1013.8 1013.7 2.4
18/05:30pm 12.8 5.5 7.0 68 2.8 WNW 35 48 19 26 1013.3 1013.2 2.4
18/05:11pm 13.6 5.6 7.6 67 3.0 WNW 39 63 21 34 1013.6 1013.5 2.4
18/05:00pm 12.8 5.1 7.0 68 2.8 WNW 37 46 20 25 1013.4 1013.3 2.4
18/04:58pm 12.8 5.1 7.3 69 2.7 WNW 37 46 20 25 1013.4 1013.3 2.4
18/04:36pm 13.6 7.5 8.2 70 2.7 W 30 54 16 29 1013.6 1013.5 1.8
18/04:30pm 13.3 7.3 8.6 73 2.4 WNW 30 41 16 22 1013.3 1013.2 1.8
18/04:21pm 12.9 3.4 6.5 65 3.1 WNW 46 83 25 45 1013.4 1013.3 1.8
18/04:18pm 12.8 3.6 6.2 64 3.1 W 44 83 24 45 1013.6 1013.5 1.8
18/04:16pm 15.0 6.7 6.3 56 4.2 W 39 69 21 37 1013.3 1013.2 1.6
18/04:10pm 15.4 8.3 5.3 51 4.8 W 32 50 17 27 1013.0 1012.9 1.6
18/04:00pm 15.9 7.7 4.6 47 5.3 W 37 50 20 27 1013.1 1013.0 1.6
18/03:33pm 15.5 7.6 4.3 47 5.2 W 35 54 19 29 1013.0 1012.9 1.6
18/03:30pm 15.5 7.4 5.1 50 4.9 W 37 54 20 29 1012.9 1012.8 1.6
18/03:06pm 15.6 8.3 7.4 58 4.1 W 35 54 19 29 1012.7 1012.6 1.6
18/03:00pm 16.3 9.0 7.3 55 4.5 W 35 46 19 25 1012.6 1012.5 1.6
18/02:45pm 16.6 8.2 3.7 42 6.0 W 37 56 20 30 1012.6 1012.5 1.6
18/02:30pm 16.6 8.2 5.6 48 5.3 W 39 52 21 28 1012.5 1012.4 1.6
18/02:28pm 16.7 8.8 6.2 50 5.1 W 37 50 20 27 1012.5 1012.4 1.6
18/02:00pm 15.0 7.2 9.6 70 2.8 WSW 41 59 22 32 1012.5 1012.4 1.6
18/01:51pm 15.7 9.0 7.2 57 4.2 W 32 59 17 32 1012.4 1012.3 1.6
18/01:30pm 16.2 9.3 7.4 56 4.4 W 33 43 18 23 1012.6 1012.5 1.6
18/01:00pm 15.7 8.4 8.7 63 3.6 WSW 37 46 20 25 1012.8 1012.7 1.6
18/12:30pm 15.3 7.5 9.7 69 2.9 SW 41 52 22 28 1013.1 1013.0 1.6
18/12:00pm 15.4 7.9 10.8 74 2.4 WSW 41 61 22 33 1013.2 1013.1 1.6
18/11:59am 15.7 8.2 10.7 72 2.7 WSW 41 61 22 33 1013.3 1013.2 1.6
18/11:30am 15.0 7.5 9.6 70 2.8 WSW 39 50 21 27 1013.5 1013.4 1.6
18/11:00am 14.8 7.4 9.8 72 2.6 SW 39 50 21 27 1013.7 1013.6 1.6
18/10:32am 13.4 7.2 11.3 87 1.1 SW 35 54 19 29 1013.8 1013.7 1.2
18/10:30am 13.3 7.1 11.4 88 1.0 SW 35 54 19 29 1013.8 1013.7 1.2
18/10:08am 13.8 8.7 9.3 74 2.3 WSW 26 57 14 31 1013.8 1013.7 0.8
18/10:00am 14.3 10.8 10.1 76 2.2 SW 19 26 10 14 1013.5 1013.4 0.8
18/09:30am 13.1 10.2 11.0 87 1.1 WSW 17 20 9 11 1013.7 1013.6 0.8
18/09:09am 12.8 7.2 8.7 76 2.1 SW 28 61 15 33 1013.5 1013.4 0.0
18/09:00am 14.1 11.3 11.3 83 1.5 SW 17 22 9 12 1013.0 1012.9 11.4
18/08:36am 13.4 8.8 9.8 79 1.9 SW 24 46 13 25 1012.7 1012.6 10.8
18/08:30am 14.3 10.7 10.5 78 2.0 SW 20 26 11 14 1012.5 1012.4 10.6
18/08:00am 13.4 8.7 10.6 83 1.5 SSW 26 35 14 19 1012.3 1012.2 10.6
18/07:33am 13.8 7.8 10.8 82 1.6 SSW 33 52 18 28 1012.2 1012.1 10.6
18/07:30am 13.9 7.1 10.7 81 1.7 SSW 37 52 20 28 1012.2 1012.1 10.6
18/07:00am 13.7 6.0 11.6 87 1.1 SSW 43 57 23 31 1011.8 1011.7 10.6
18/06:50am 14.5 9.8 12.0 85 1.4 S 28 50 15 27 1011.3 1011.2 10.6
18/06:30am 14.7 10.2 11.5 81 1.7 S 26 33 14 18 1011.0 1010.9 10.6
18/06:00am 14.9 9.4 11.7 81 1.7 S 32 39 17 21 1010.7 1010.6 10.6
18/05:30am 14.8 8.6 11.4 80 1.8 SSW 35 48 19 26 1010.4 1010.3 10.6
18/05:00am 15.3 9.2 11.9 80 1.8 SSW 35 46 19 25 1010.4 1010.3 10.6
18/04:30am 15.7 10.3 12.8 83 1.6 SSW 33 41 18 22 1010.0 1009.9 10.6
18/04:00am 14.3 9.2 13.0 92 0.7 SW 32 46 17 25 1010.3 1010.2 10.6
18/03:30am 14.7 10.4 13.2 91 0.8 SW 28 41 15 22 1009.9 1009.8 9.2
18/03:00am 15.1 10.9 13.6 91 0.8 SW 28 35 15 19 1010.0 1009.9 9.0
18/02:30am 14.7 10.9 13.7 94 0.6 SSW 26 39 14 21 1009.4 1009.3 9.0
18/02:15am 15.3 10.8 13.8 91 0.8 SSW 30 48 16 26 1009.5 1009.4 9.0
18/02:00am 15.3 10.4 13.7 90 0.9 SW 32 39 17 21 1009.6 1009.5 8.6
18/01:30am 15.3 11.9 13.8 91 0.8 WSW 24 33 13 18 1010.0 1009.9 8.4
18/01:00am 15.0 9.7 13.2 89 1.0 SW 33 41 18 22 1010.4 1010.3 7.2
18/12:47am 15.0 9.8 13.4 90 0.9 WSW 33 44 18 24 1010.4 1010.3 7.0
18/12:30am 15.6 11.8 13.6 88 1.1 W 26 37 14 20 1010.1 1010.0 6.6
18/12:00am 15.7 10.5 13.5 87 1.2 W 33 43 18 23 1010.9 1010.8 6.2
 
Date/Time
WST
Temp
°C
App
Temp
°C
Dew
Point
°C
Rel
Hum
%
Delta-T
°C
Wind Press
QNH
hPa
Press
MSL
hPa
Rain since
9am
mm
Dir  Spd
km/h
Gust
km/h
Spd
kts
Gust
kts
17/11:30pm 16.3 11.1 12.7 79 2.0 W 32 43 17 23 1010.4 1010.3 5.8
17/11:00pm 16.3 10.8 12.5 78 2.1 W 33 48 18 26 1010.5 1010.4 5.8
17/10:30pm 15.6 9.2 13.3 86 1.3 WSW 39 57 21 31 1011.0 1010.9 5.8
17/10:17pm 16.4 11.3 13.1 81 1.8 W 32 50 17 27 1010.8 1010.7 5.8
17/10:00pm 15.8 12.6 14.2 90 0.9 W 24 32 13 17 1011.1 1011.0 5.8
17/09:30pm 15.7 12.3 14.7 94 0.6 WSW 26 37 14 20 1011.1 1011.0 5.2
17/09:00pm 16.2 11.2 15.1 93 0.6 W 35 46 19 25 1011.4 1011.3 3.8
17/08:47pm 16.8 9.1 15.5 92 0.8 NW 50 65 27 35 1011.6 1011.5 3.2
17/08:30pm 18.0 9.9 16.3 90 1.0 NNW 54 69 29 37 1010.6 1010.5 2.2
17/08:00pm 17.9 9.1 16.2 90 1.0 NW 57 78 31 42 1011.2 1011.1 1.4
17/07:50pm 18.4 10.1 16.9 91 0.9 NW 56 74 30 40 1011.3 1011.2 1.0
17/07:30pm 19.0 10.4 16.0 83 1.8 NNW 56 72 30 39 1010.9 1010.8 0.2
17/07:00pm 20.4 11.6 15.6 74 2.9 NNW 56 69 30 37 1010.9 1010.8 0.0
17/06:30pm 20.2 12.5 15.4 74 2.8 NNW 50 69 27 37 1011.2 1011.1 0.0
17/06:11pm 20.4 11.5 15.2 72 3.1 NNW 56 74 30 40 1011.2 1011.1 0.0
17/06:00pm 20.6 11.2 15.4 72 3.1 NNW 59 74 32 40 1011.5 1011.4 0.0
17/05:36pm 20.5 12.0 15.3 72 3.1 NNW 54 74 29 40 1011.5 1011.4 0.0
17/05:30pm 20.5 11.5 15.1 71 3.2 NNW 56 70 30 38 1011.3 1011.2 0.0
17/05:11pm 20.3 13.5 15.9 76 2.6 NNW 46 65 25 35 1011.6 1011.5 0.0
17/05:00pm 20.2 13.0 15.8 76 2.6 NNW 48 63 26 34 1011.3 1011.2 0.0
17/04:33pm 20.2 14.0 16.0 77 2.5 NNW 43 61 23 33 1011.3 1011.2 0.0
17/04:30pm 20.2 14.1 16.2 78 2.4 NNW 43 56 23 30 1011.5 1011.4 0.0
17/04:00pm 20.2 14.8 16.0 77 2.5 N 39 50 21 27 1011.2 1011.1 0.0
17/03:30pm 19.9 15.3 16.0 78 2.3 N 35 46 19 25 1011.3 1011.2 0.0
17/03:00pm 19.9 15.4 15.5 76 2.6 N 33 43 18 23 1011.6 1011.5 0.0
17/02:30pm 20.0 14.3 15.2 74 2.8 NNW 39 48 21 26 1012.1 1012.0 0.0
17/02:00pm 20.1 14.1 14.5 70 3.3 NNW 39 50 21 27 1012.4 1012.3 0.0
17/01:30pm 20.1 13.4 13.3 65 3.9 N 41 52 22 28 1012.5 1012.4 0.0
17/01:00pm 20.5 13.1 12.5 60 4.5 NNW 43 52 23 28 1013.2 1013.1 0.0
17/12:30pm 21.0 14.7 12.4 58 4.9 N 37 52 20 28 1013.4 1013.3 0.0
17/12:00pm 19.9 12.2 10.3 54 5.2 N 41 50 22 27 1014.0 1013.9 0.0
17/11:30am 18.9 11.2 10.2 57 4.7 N 41 54 22 29 1014.5 1014.4 0.0
17/11:00am 19.1 11.0 9.9 55 4.9 N 43 56 23 30 1014.5 1014.4 0.0
17/10:30am 18.8 10.2 9.0 53 5.1 N 44 59 24 32 1015.2 1015.1 0.0
17/10:00am 17.7 8.7 8.8 56 4.6 N 46 59 25 32 1015.0 1014.9 0.0
17/09:30am 17.5 9.6 9.2 58 4.3 N 41 52 22 28 1015.4 1015.3 0.0
17/09:00am 17.0 9.1 9.4 61 4.0 N 41 54 22 29 1014.9 1014.8 0.0
17/08:30am 17.1 9.6 9.5 61 4.0 N 39 48 21 26 1015.2 1015.1 0.0
17/08:00am 16.9 9.3 9.1 60 4.0 N 39 50 21 27 1015.6 1015.5 0.0
17/07:30am 17.0 9.4 8.9 59 4.2 N 39 48 21 26 1015.7 1015.6 0.0
17/07:00am 16.9 9.2 8.8 59 4.2 N 39 46 21 25 1016.2 1016.1 0.0
17/06:30am 17.6 9.2 9.0 57 4.5 N 43 52 23 28 1015.8 1015.7 0.0
17/06:00am 17.4 9.3 8.5 56 4.6 N 41 50 22 27 1015.8 1015.7 0.0
17/05:30am 17.8 9.6 8.4 54 4.8 N 41 52 22 28 1015.8 1015.7 0.0
17/05:00am 17.6 9.1 8.5 55 4.7 NNE 43 56 23 30 1015.7 1015.6 0.0
17/04:30am 17.6 9.0 8.2 54 4.8 NNE 43 54 23 29 1016.0 1015.9 0.0
17/04:00am 17.5 9.1 8.9 57 4.5 NNE 43 54 23 29 1016.3 1016.2 0.0
17/03:30am 17.6 9.6 9.0 57 4.5 NNE 41 52 22 28 1015.8 1015.7 0.0
17/03:00am 17.7 9.6 8.6 55 4.7 NNE 41 52 22 28 1016.3 1016.2 0.0
17/02:30am 17.3 9.0 9.5 60 4.1 NNE 43 52 23 28 1016.9 1016.8 0.0
17/02:00am 17.8 10.3 9.4 58 4.4 NNE 39 48 21 26 1017.2 1017.2 0.0
17/01:30am 18.0 11.0 10.1 60 4.2 NNE 37 46 20 25 1017.4 1017.4 0.0
17/01:00am 17.8 11.7 10.4 62 3.9 NNE 33 44 18 24 1017.8 1017.8 0.0
17/12:30am 17.9 11.3 10.0 60 4.2 NNE 35 44 19 24 1018.3 1018.3 0.0
17/12:00am 18.1 11.6 10.2 60 4.2 NNE 35 44 19 24 1018.5 1018.5 0.0
 
Date/Time
WST
Temp
°C
App
Temp
°C
Dew
Point
°C
Rel
Hum
%
Delta-T
°C
Wind Press
QNH
hPa
Press
MSL
hPa
Rain since
9am
mm
Dir  Spd
km/h
Gust
km/h
Spd
kts
Gust
kts
16/11:30pm 17.7 11.4 9.8 60 4.2 NNE 33 41 18 22 1019.1 1019.1 0.0
16/11:00pm 18.0 11.4 9.9 59 4.3 NNE 35 43 19 23 1019.3 1019.3 0.0
16/10:30pm 17.9 11.9 10.0 60 4.2 NNE 32 41 17 22 1019.6 1019.6 0.0
16/10:00pm 17.8 12.2 10.2 61 4.0 NNE 30 37 16 20 1020.0 1020.0 0.0
16/09:30pm 18.0 13.1 10.1 60 4.2 NE 26 35 14 19 1020.1 1020.1 0.0
16/09:00pm 18.3 13.8 10.2 59 4.3 NE 24 32 13 17 1020.4 1020.4 0.0
16/08:30pm 18.2 14.9 10.8 62 4.0 NE 19 26 10 14 1020.5 1020.5 0.0
16/08:00pm 18.5 15.1 10.6 60 4.2 NE 19 22 10 12 1020.6 1020.6 0.0
16/07:30pm 18.7 15.2 10.8 60 4.3 NE 20 26 11 14 1020.7 1020.7 0.0
16/07:00pm 18.8 15.0 11.1 61 4.2 NE 22 26 12 14 1020.7 1020.7 0.0
16/06:30pm 18.6 15.3 11.7 64 3.8 NE 20 24 11 13 1020.9 1020.9 0.0
16/06:00pm 18.6 16.3 13.0 70 3.1 NE 17 19 9 10 1020.9 1020.9 0.0
16/05:30pm 19.0 16.2 12.5 66 3.6 NE 19 20 10 11 1020.8 1020.8 0.0
16/05:00pm 20.1 18.1 12.8 63 4.1 NE 15 20 8 11 1020.7 1020.7 0.0
16/04:30pm 20.9 17.5 11.3 54 5.3 NNE 20 26 11 14 1020.7 1020.7 0.0
16/04:00pm 21.6 17.9 10.1 48 6.2 NNE 20 28 11 15 1020.9 1020.9 0.0
16/03:30pm 21.9 17.8 10.1 47 6.4 NNE 22 28 12 15 1020.8 1020.8 0.0
16/03:00pm 21.7 17.0 9.3 45 6.6 NNE 24 28 13 15 1020.9 1020.9 0.0
16/02:30pm 21.8 18.4 11.2 51 5.9 NNE 20 28 11 15 1020.8 1020.8 0.0
16/02:00pm 21.4 16.5 9.9 48 6.2 NNE 26 32 14 17 1020.9 1020.9 0.0
16/01:30pm 21.2 15.6 10.1 49 6.0 NNE 30 35 16 19 1021.0 1021.0 0.0
16/01:00pm 21.1 15.2 10.3 50 5.9 NNE 32 39 17 21 1021.2 1021.2 0.0
16/12:30pm 20.2 14.5 9.7 51 5.6 NNE 30 37 16 20 1021.8 1021.8 0.0
16/12:00pm 19.9 13.7 9.2 50 5.6 NNE 32 41 17 22 1022.6 1022.6 0.0
16/11:30am 19.3 13.0 8.9 51 5.5 NNE 32 41 17 22 1023.3 1023.3 0.0
16/11:00am 18.8 13.5 9.8 56 4.8 NNE 28 35 15 19 1023.9 1023.9 0.0
16/10:30am 17.8 11.9 8.9 56 4.6 NE 30 39 16 21 1024.2 1024.2 0.0
16/10:00am 16.9 10.2 8.3 57 4.4 NE 33 41 18 22 1024.2 1024.2 0.0
16/09:30am 16.6 9.6 8.3 58 4.2 NNE 35 43 19 23 1024.1 1024.1 0.0
16/09:00am 16.3 10.6 8.3 59 4.0 NE 28 41 15 22 1024.3 1024.3 0.0
16/08:30am 15.8 10.9 8.3 61 3.8 NE 24 35 13 19 1024.5 1024.5 0.0
16/08:00am 15.2 10.3 8.4 64 3.4 NE 24 32 13 17 1024.3 1024.3 0.0
16/07:30am 15.1 10.1 8.1 63 3.5 NE 24 33 13 18 1024.0 1024.0 0.0
16/07:00am 15.1 10.5 8.1 63 3.5 NE 22 30 12 16 1023.7 1023.7 0.0
16/06:30am 15.3 10.4 8.3 63 3.5 NE 24 35 13 19 1023.4 1023.4 0.0
16/06:00am 15.5 10.5 8.0 61 3.8 NE 24 33 13 18 1023.1 1023.1 0.0
16/05:30am 15.5 10.9 8.3 62 3.6 NE 22 35 12 19 1023.2 1023.2 0.0
16/05:00am 15.4 11.1 7.9 61 3.7 NE 20 30 11 16 1023.1 1023.1 0.0
16/04:30am 15.4 11.2 8.2 62 3.6 ENE 20 30 11 16 1023.1 1023.1 0.0
16/04:00am 15.2 11.4 9.1 67 3.1 ENE 19 26 10 14 1023.4 1023.4 0.0
16/03:30am 15.0 11.2 8.9 67 3.1 ENE 19 22 10 12 1023.4 1023.4 0.0
16/03:00am 15.1 11.7 9.2 68 3.0 ENE 17 22 9 12 1023.5 1023.5 0.0
16/02:30am 15.0 11.6 9.1 68 3.0 ENE 17 20 9 11 1023.6 1023.6 0.0
16/02:00am 15.6 12.2 9.3 66 3.2 ENE 17 26 9 14 1023.5 1023.5 0.0
16/01:30am 15.4 12.2 10.0 70 2.8 ENE 17 20 9 11 1023.5 1023.5 0.0
16/01:00am 15.6 12.3 9.7 68 3.1 ENE 17 22 9 12 1023.5 1023.5 0.0
16/12:30am 15.6 11.8 9.9 69 3.0 ENE 20 26 11 14 1023.6 1023.6 0.0
16/12:00am 15.6 12.4 9.9 69 3.0 E 17 24 9 13 1023.7 1023.7 0.0
 
Date/Time
WST
Temp
°C
App
Temp
°C
Dew
Point
°C
Rel
Hum
%
Delta-T
°C
Wind Press
QNH
hPa
Press
MSL
hPa
Rain since
9am
mm
Dir  Spd
km/h
Gust
km/h
Spd
kts
Gust
kts
15/11:30pm 15.5 12.7 10.1 70 2.8 E 15 20 8 11 1023.9 1023.9 0.0
15/11:00pm 15.8 12.6 9.9 68 3.1 E 17 20 9 11 1024.0 1024.0 0.0
15/10:30pm 16.3 13.0 9.7 65 3.5 E 17 20 9 11 1024.1 1024.1 0.0
15/10:00pm 16.6 13.8 10.0 65 3.5 E 15 17 8 9 1024.2 1024.2 0.0
15/09:30pm 16.6 13.9 10.2 66 3.4 E 15 19 8 10 1024.0 1024.0 0.0
15/09:00pm 16.7 13.6 10.3 66 3.4 E 17 20 9 11 1024.0 1024.0 0.0
15/08:30pm 16.9 13.9 10.7 67 3.3 E 17 19 9 10 1023.8 1023.8 0.0
15/08:00pm 17.2 15.1 11.0 67 3.3 ESE 13 17 7 9 1023.4 1023.4 0.0
15/07:30pm 17.5 14.8 11.8 69 3.1 SE 17 22 9 12 1023.3 1023.3 0.0

Other formats

Comma delimited format used in spreadsheet applications
http://www.bom.gov.au/fwo/IDW60801/IDW60801.94602.axf

JavaScript Object Notation format (JSON) in row-major order
http://www.bom.gov.au/fwo/IDW60801/IDW60801.94602.json

Data quality

Most of these data are generated automatically and are frequently updated. Quality checks on data are not normally performed. It is possible for incorrect values to appear. Refer to information at About Latest Weather Observations and please check the disclaimer before using these data.